Conway, SC

8:57 AM EST on December 22, 2014 (GMT -0500)
Conway-Horry County | Change Station
CLOSE
Current Station
Airport
Location: Conway,
Elevation: 33 ft
Nearby Weather Stations

Elev 33 ft 33.83 °N, 79.12 °W | Updated 22 minutes ago

Overcast
Overcast
43 °F
Feels Like 39 °F
N
6
Wind Variable Wind from North

Today
High -- | Low -- °F
--% Chance of Precip.
Yesterday
High -- | Low -- °F
Precip. -- in
7:18 AM 5:12 PM
New Moon, 0% visible
Pressure 30.10 in
Visibility 7.0 miles
Clouds Overcast 700 ft
Windchill 39 °F
Dew Point 43 °F
Humidity 100%
Rainfall 0.23 in
Snow Depth Not available.
UV 0 out of 12
Pollen .50 out of 12
Air Quality Not available.
Flu Activity Not available.
METAR KHYW 221335Z AUTO 01005KT 7SM OVC007 06/06 A3010 RMK AO2 P0001

More Conditions Fewer Conditions

Pressure 30.10 in
Visibility 7.0 miles
Clouds Overcast 700 ft
Windchill 39 °F
Dew Point 43 °F
Humidity 100%
Rainfall 0.23 in
Snow Depth Not available.
UV 0 out of 12
Pollen .50 out of 12
Air Quality Not available.
Flu Activity Not available.
METAR KHYW 221335Z AUTO 01005KT 7SM OVC007 06/06 A3010 RMK AO2 P0001

More Conditions Fewer Conditions

10-Day Weather Forecast

Almanac

Astronomy

Dec. 22, 2014 Rise Set
Actual Time
Civil Twilight
Nautical Twilight
Astronomical Twilight
Moon
Length of Visible Light
Length of Day
Tomorrow will be .
, % of the Moon is Illuminated

Today's Extremes

State Highs State Lows

Community

WunderPhotos

Upload Photos

1,779,599 photos uploaded!

WunderBlogs® & News

Nearby

Air Quality

  Air Quality AQ Index Pollutant
Not available.

Snow Depth

Station Depth Elevation

Earthquake Activity

City Distance Mag. Time & Date
Minimum magnitude displayed is 2.5.

Coastal Water Temperatures

Place Temperature

Nearby Weather Stations